Time;durP1;ratioP1;P1;durP2;ratioP2;P2;SDS_P1;SDS_P2;PMS_P1;PMS_P2;Temp;Humidity;BMP_temperature;BMP_pressure;BME280_temperature;BME280_humidity;BME280_pressure;Samples;Min_cycle;Max_cycle;Signal;HPM_P1;HPM_P2
2023/12/16 00:01:41;;;;;;;23.55;10.80;;;7.70;99.90;;;;;;5069349;27;20725;-78
2023/12/16 00:04:07;;;;;;;25.20;10.60;;;7.70;99.90;;;;;;5055563;28;20027;-82
2023/12/16 00:06:34;;;;;;;22.45;10.15;;;7.70;99.90;;;;;;5055040;28;20031;-82
2023/12/16 00:09:00;;;;;;;26.90;11.60;;;7.70;99.90;;;;;;5069740;28;20032;-80
2023/12/16 00:11:26;;;;;;;26.33;12.48;;;7.70;99.90;;;;;;5069618;28;20027;-81
2023/12/16 00:13:53;;;;;;;30.65;12.95;;;7.70;99.90;;;;;;5062092;28;20043;-83
2023/12/16 00:16:19;;;;;;;34.75;15.13;;;7.70;99.90;;;;;;5072460;28;20042;-80
2023/12/16 00:18:46;;;;;;;30.00;12.85;;;7.70;99.90;;;;;;5072190;28;20291;-80
2023/12/16 00:21:12;;;;;;;31.85;14.00;;;7.70;99.90;;;;;;5039475;28;20038;-73
2023/12/16 00:23:39;;;;;;;33.38;15.65;;;7.70;99.90;;;;;;5056018;28;20035;-80
2023/12/16 00:26:05;;;;;;;29.02;14.13;;;7.70;99.90;;;;;;5037314;28;20038;-82
2023/12/16 00:28:32;;;;;;;32.95;14.68;;;7.70;99.90;;;;;;5089819;28;20040;-84
2023/12/16 00:30:58;;;;;;;36.90;13.90;;;7.70;99.90;;;;;;5034878;28;20036;-83
2023/12/16 00:33:24;;;;;;;35.72;12.65;;;7.70;99.90;;;;;;5071445;28;20059;-77
2023/12/16 00:35:51;;;;;;;33.42;12.93;;;7.70;99.90;;;;;;5069314;28;20614;-77
2023/12/16 00:38:17;;;;;;;25.35;10.73;;;7.70;99.90;;;;;;5068520;28;20028;-79
2023/12/16 00:40:44;;;;;;;25.63;10.88;;;7.70;99.90;;;;;;5071661;28;20058;-79
2023/12/16 00:43:10;;;;;;;22.70;9.27;;;7.70;99.90;;;;;;5052444;28;20032;-80
2023/12/16 00:45:37;;;;;;;25.48;9.35;;;7.70;99.90;;;;;;5101542;27;20024;-80
2023/12/16 00:48:03;;;;;;;19.15;8.32;;;7.70;99.90;;;;;;5087993;28;20039;-81
2023/12/16 00:50:29;;;;;;;20.92;8.48;;;7.70;99.90;;;;;;5069134;28;20038;-80
2023/12/16 00:52:56;;;;;;;20.88;8.60;;;7.70;99.90;;;;;;5053599;28;20738;-82
2023/12/16 00:55:22;;;;;;;16.55;7.50;;;7.70;99.90;;;;;;5087813;28;20105;-81
2023/12/16 00:57:48;;;;;;;14.75;7.47;;;7.70;99.90;;;;;;5071205;28;20122;-79
2023/12/16 01:00:15;;;;;;;18.02;6.82;;;7.70;99.90;;;;;;5074180;28;20038;-77
2023/12/16 01:02:41;;;;;;;16.60;6.35;;;7.70;99.90;;;;;;5053000;28;20501;-81
2023/12/16 01:05:08;;;;;;;14.98;7.13;;;7.70;99.90;;;;;;5054002;28;20043;-79
2023/12/16 01:07:35;;;;;;;12.80;5.38;;;7.70;99.90;;;;;;5070851;28;20032;-80
2023/12/16 01:10:01;;;;;;;15.43;5.47;;;7.70;99.90;;;;;;5068476;28;20039;-79
2023/12/16 01:12:28;;;;;;;17.23;5.63;;;7.70;99.90;;;;;;5054313;28;20032;-74
2023/12/16 01:14:54;;;;;;;14.13;5.78;;;7.70;99.90;;;;;;5068807;28;20043;-82
2023/12/16 01:17:20;;;;;;;10.13;4.47;;;7.60;99.90;;;;;;5054180;28;20035;-83
2023/12/16 01:19:47;;;;;;;14.95;4.93;;;7.60;99.90;;;;;;5070217;28;20028;-82
2023/12/16 01:22:14;;;;;;;15.75;5.22;;;7.60;99.90;;;;;;5073146;27;20051;-80
2023/12/16 01:24:40;;;;;;;10.52;3.58;;;7.50;99.90;;;;;;5071154;28;20044;-81
2023/12/16 01:27:06;;;;;;;9.15;3.72;;;7.50;99.90;;;;;;5073850;27;20043;-78
2023/12/16 01:29:33;;;;;;;16.70;4.80;;;7.50;99.90;;;;;;5056642;28;20389;-79
2023/12/16 01:32:00;;;;;;;11.57;4.65;;;7.50;99.90;;;;;;5090583;27;20040;-82
2023/12/16 01:34:26;;;;;;;6.32;2.22;;;7.50;99.90;;;;;;5071915;27;20047;-78
2023/12/16 01:36:52;;;;;;;12.73;2.90;;;7.50;99.90;;;;;;5095222;27;20050;-79
2023/12/16 01:39:19;;;;;;;10.25;3.08;;;7.50;99.90;;;;;;5074927;27;20032;-83
2023/12/16 01:41:45;;;;;;;11.45;2.30;;;7.50;99.90;;;;;;5093671;27;20113;-82
2023/12/16 01:44:11;;;;;;;8.20;2.25;;;7.40;99.90;;;;;;5074155;27;20042;-83
2023/12/16 01:46:38;;;;;;;6.50;2.40;;;7.40;99.90;;;;;;5072426;28;20039;-80
2023/12/16 01:49:04;;;;;;;9.15;2.53;;;7.40;99.90;;;;;;5072932;28;20032;-76
2023/12/16 01:51:32;;;;;;;9.35;2.85;;;7.30;99.90;;;;;;5071152;27;20032;-76
2023/12/16 01:53:59;;;;;;;8.38;2.40;;;7.20;99.90;;;;;;5091058;27;20035;-81
2023/12/16 01:56:28;;;;;;;7.90;2.33;;;7.10;99.90;;;;;;5092420;27;20050;-79
2023/12/16 01:58:55;;;;;;;6.20;2.20;;;7.10;99.90;;;;;;5074188;27;20047;-81
2023/12/16 02:01:21;;;;;;;9.18;2.10;;;7.00;99.90;;;;;;5054817;27;20031;-82
2023/12/16 02:03:51;;;;;;;6.82;2.47;;;7.00;99.90;;;;;;5085627;27;20039;-81
2023/12/16 02:06:17;;;;;;;7.50;2.03;;;7.00;99.90;;;;;;5056041;28;20394;-82
2023/12/16 02:08:44;;;;;;;7.18;2.00;;;7.00;99.90;;;;;;5069207;28;20042;-81
2023/12/16 02:11:12;;;;;;;8.73;2.45;;;7.00;99.90;;;;;;5040629;28;20035;-80
2023/12/16 02:13:40;;;;;;;7.85;2.42;;;7.00;99.90;;;;;;5073742;28;20028;-82
2023/12/16 02:16:09;;;;;;;6.45;1.95;;;7.00;99.90;;;;;;5055600;28;20047;-74
2023/12/16 02:18:36;;;;;;;6.60;2.05;;;7.00;99.90;;;;;;5056039;27;20050;-81
2023/12/16 02:21:04;;;;;;;9.23;2.15;;;6.90;99.90;;;;;;5053159;28;20449;-79
2023/12/16 02:23:30;;;;;;;7.15;2.28;;;6.90;99.90;;;;;;5090375;27;20478;-78
2023/12/16 02:25:56;;;;;;;12.38;2.70;;;6.90;99.90;;;;;;5069607;27;20386;-78
2023/12/16 02:28:23;;;;;;;8.77;2.00;;;6.90;99.90;;;;;;5069795;28;20035;-82
2023/12/16 02:30:49;;;;;;;6.68;2.50;;;6.80;99.90;;;;;;5072481;28;20520;-75
2023/12/16 02:33:17;;;;;;;7.43;2.20;;;6.80;99.90;;;;;;5054669;27;20422;-76
2023/12/16 02:35:43;;;;;;;10.05;2.58;;;6.80;99.90;;;;;;5071464;28;20035;-78
2023/12/16 02:38:10;;;;;;;11.13;3.30;;;6.70;99.90;;;;;;5055427;27;20596;-80
2023/12/16 02:40:41;;;;;;;17.00;4.68;;;6.70;99.90;;;;;;5052874;27;20648;-78
2023/12/16 02:43:11;;;;;;;9.23;2.90;;;6.60;99.90;;;;;;5057260;28;20051;-81
2023/12/16 02:45:38;;;;;;;8.02;2.42;;;6.60;99.90;;;;;;5039253;28;20039;-79
2023/12/16 02:48:04;;;;;;;8.65;2.75;;;6.60;99.90;;;;;;5057231;27;20028;-79
2023/12/16 02:50:31;;;;;;;15.88;4.15;;;6.50;99.90;;;;;;5040595;28;20061;-81
2023/12/16 02:52:57;;;;;;;9.85;3.58;;;6.50;99.90;;;;;;5057215;27;20054;-81
2023/12/16 02:55:23;;;;;;;10.00;3.58;;;6.50;99.90;;;;;;5046426;27;20031;-77
2023/12/16 02:57:50;;;;;;;11.80;3.40;;;6.40;99.90;;;;;;5055415;28;20032;-75
2023/12/16 03:00:16;;;;;;;9.10;3.03;;;6.40;99.90;;;;;;5041179;28;20036;-82
2023/12/16 03:02:42;;;;;;;8.50;2.50;;;6.30;99.90;;;;;;5070125;27;20047;-78
2023/12/16 03:05:09;;;;;;;10.00;2.95;;;6.30;99.90;;;;;;5091147;27;20035;-77
2023/12/16 03:07:38;;;;;;;7.35;2.58;;;6.30;99.90;;;;;;5092533;27;20039;-81
2023/12/16 03:10:04;;;;;;;9.63;2.88;;;6.20;99.90;;;;;;5055020;27;20036;-80
2023/12/16 03:12:31;;;;;;;9.05;3.22;;;6.20;99.90;;;;;;5057551;27;20482;-82
2023/12/16 03:14:57;;;;;;;14.20;4.75;;;6.20;99.90;;;;;;5058325;28;20023;-77
2023/12/16 03:17:23;;;;;;;13.38;3.88;;;6.10;99.90;;;;;;5054805;28;20043;-77
2023/12/16 03:19:50;;;;;;;12.35;3.30;;;6.10;99.90;;;;;;5057472;27;20028;-78
2023/12/16 03:22:16;;;;;;;13.75;4.70;;;6.10;99.90;;;;;;5073037;28;20034;-81
2023/12/16 03:24:42;;;;;;;16.00;4.85;;;6.00;99.90;;;;;;5071083;28;20066;-79
2023/12/16 03:27:09;;;;;;;10.43;4.07;;;6.00;99.90;;;;;;5055779;28;20039;-80
2023/12/16 03:29:35;;;;;;;15.63;4.85;;;6.00;99.90;;;;;;5088161;27;20019;-78
2023/12/16 03:32:02;;;;;;;14.25;5.22;;;5.90;99.90;;;;;;5055530;28;20864;-78
2023/12/16 03:34:30;;;;;;;17.00;6.15;;;5.90;99.90;;;;;;5053628;28;20035;-82
2023/12/16 03:36:56;;;;;;;19.08;6.03;;;5.90;99.90;;;;;;5073771;28;20051;-75
2023/12/16 03:39:23;;;;;;;22.55;7.32;;;5.90;99.90;;;;;;5090475;27;20031;-82
2023/12/16 03:41:50;;;;;;;13.85;6.05;;;5.90;99.90;;;;;;5054235;28;20039;-81
2023/12/16 03:44:16;;;;;;;18.23;7.68;;;5.90;99.90;;;;;;5091968;27;20046;-81
2023/12/16 03:46:42;;;;;;;17.20;6.50;;;5.90;99.90;;;;;;5055662;27;20768;-76
2023/12/16 03:49:09;;;;;;;15.52;6.90;;;5.90;99.90;;;;;;5089479;27;20372;-82
2023/12/16 03:51:35;;;;;;;13.88;7.10;;;5.90;99.90;;;;;;5086285;27;20042;-79
2023/12/16 03:54:02;;;;;;;16.90;7.80;;;5.80;99.90;;;;;;5056753;28;20046;-80
2023/12/16 03:56:28;;;;;;;17.25;7.85;;;5.90;99.90;;;;;;5071444;28;20031;-81
2023/12/16 03:58:54;;;;;;;14.32;7.10;;;5.90;99.90;;;;;;5057362;28;20042;-76
2023/12/16 04:01:21;;;;;;;21.23;8.18;;;5.90;99.90;;;;;;5040096;28;20028;-82
2023/12/16 04:03:47;;;;;;;21.23;7.55;;;5.90;99.90;;;;;;5056423;28;20046;-80
2023/12/16 04:06:14;;;;;;;17.25;6.63;;;5.90;99.90;;;;;;5055280;28;20044;-83
2023/12/16 04:08:41;;;;;;;15.73;7.55;;;5.90;99.90;;;;;;5071303;28;20603;-77
2023/12/16 04:11:08;;;;;;;17.73;7.32;;;6.00;99.90;;;;;;5055443;28;20032;-75
2023/12/16 04:13:35;;;;;;;15.45;7.13;;;6.00;99.90;;;;;;5057652;28;20027;-80
2023/12/16 04:16:03;;;;;;;18.23;7.85;;;6.10;99.90;;;;;;5071712;28;20066;-81
2023/12/16 04:18:32;;;;;;;21.15;8.52;;;6.10;99.90;;;;;;5056887;28;21088;-79
2023/12/16 04:20:59;;;;;;;13.25;6.90;;;6.20;99.90;;;;;;5053115;28;20475;-78
2023/12/16 04:23:25;;;;;;;15.30;7.07;;;6.20;99.90;;;;;;5039795;28;20035;-81
2023/12/16 04:25:51;;;;;;;15.70;7.55;;;6.20;99.90;;;;;;5087828;28;20042;-80
2023/12/16 04:28:18;;;;;;;20.75;9.45;;;6.20;99.90;;;;;;5056829;28;20040;-82
2023/12/16 04:30:44;;;;;;;20.90;8.23;;;6.30;99.90;;;;;;5071114;28;20048;-79
2023/12/16 04:33:10;;;;;;;19.95;9.10;;;6.30;99.90;;;;;;5069538;28;20486;-75
2023/12/16 04:35:37;;;;;;;22.92;9.07;;;6.30;99.90;;;;;;5085107;28;20396;-79
2023/12/16 04:38:03;;;;;;;21.73;8.20;;;6.40;99.90;;;;;;5054656;28;20035;-80
2023/12/16 04:40:30;;;;;;;22.70;8.30;;;6.40;99.90;;;;;;5055291;28;20054;-81
2023/12/16 04:42:56;;;;;;;21.58;8.20;;;6.40;99.90;;;;;;5069383;28;20036;-79
2023/12/16 04:45:22;;;;;;;25.13;8.00;;;6.50;99.90;;;;;;5069549;28;20032;-78
2023/12/16 04:47:49;;;;;;;16.05;8.27;;;6.50;99.90;;;;;;5090532;28;20035;-82
2023/12/16 04:50:17;;;;;;;23.05;7.88;;;6.50;99.90;;;;;;5057080;28;20051;-75
2023/12/16 04:52:43;;;;;;;18.95;6.93;;;6.40;99.90;;;;;;5092357;28;20036;-80
2023/12/16 04:55:10;;;;;;;20.48;6.53;;;6.40;99.90;;;;;;5056977;28;20569;-78
2023/12/16 04:57:37;;;;;;;22.85;8.45;;;6.40;99.90;;;;;;5060697;28;20402;-80
2023/12/16 05:00:08;;;;;;;18.73;8.10;;;6.30;99.90;;;;;;5094227;27;20029;-82
2023/12/16 05:02:34;;;;;;;17.67;7.65;;;6.30;99.90;;;;;;5058445;27;20271;-78
2023/12/16 05:05:00;;;;;;;23.33;9.20;;;6.20;99.90;;;;;;5074610;27;20036;-79
2023/12/16 05:07:27;;;;;;;24.48;8.05;;;6.20;99.90;;;;;;5072961;28;20375;-77
2023/12/16 05:09:53;;;;;;;20.80;8.23;;;6.20;99.90;;;;;;5059279;28;20052;-79
2023/12/16 05:12:19;;;;;;;18.73;7.28;;;6.10;99.90;;;;;;5075515;28;20038;-81
2023/12/16 05:14:46;;;;;;;22.80;7.95;;;6.10;99.90;;;;;;5074561;28;20031;-80
2023/12/16 05:17:13;;;;;;;18.27;7.85;;;6.10;99.90;;;;;;5057829;28;20055;-78
2023/12/16 05:19:39;;;;;;;23.45;7.63;;;6.10;99.90;;;;;;5091950;27;20020;-81
2023/12/16 05:22:05;;;;;;;13.57;6.30;;;6.10;99.90;;;;;;5074082;27;20743;-79
2023/12/16 05:24:31;;;;;;;33.67;9.50;;;6.00;99.90;;;;;;5073538;27;20051;-78
2023/12/16 05:26:58;;;;;;;30.13;10.40;;;6.00;99.90;;;;;;5094083;27;20028;-79
2023/12/16 05:29:24;;;;;;;18.10;8.93;;;6.00;99.90;;;;;;5062057;28;20050;-78
2023/12/16 05:31:51;;;;;;;24.08;8.25;;;6.00;99.90;;;;;;5073349;27;20036;-78
2023/12/16 05:34:17;;;;;;;21.77;8.25;;;5.90;99.90;;;;;;5075870;27;20036;-80
2023/12/16 05:36:44;;;;;;;22.17;8.13;;;5.90;99.90;;;;;;5076505;27;20027;-81
2023/12/16 05:39:10;;;;;;;22.75;8.02;;;5.90;99.90;;;;;;5074311;28;20042;-81
2023/12/16 05:41:36;;;;;;;27.92;10.00;;;5.90;99.90;;;;;;5091913;27;20046;-77
2023/12/16 05:44:03;;;;;;;22.75;7.70;;;5.90;99.90;;;;;;5072675;28;20031;-80
2023/12/16 05:46:29;;;;;;;20.42;8.23;;;5.90;99.90;;;;;;5057763;27;20279;-78
2023/12/16 05:48:55;;;;;;;18.88;8.52;;;5.90;99.90;;;;;;5041388;28;20043;-81
2023/12/16 05:51:22;;;;;;;18.88;8.98;;;5.80;99.90;;;;;;5072955;28;20042;-75
2023/12/16 05:53:48;;;;;;;21.85;8.18;;;5.80;99.90;;;;;;5093913;27;20032;-80
2023/12/16 05:56:14;;;;;;;30.15;9.50;;;5.80;99.90;;;;;;5055740;28;20070;-76
2023/12/16 05:58:40;;;;;;;27.05;8.55;;;5.80;99.90;;;;;;5058329;28;20047;-78
2023/12/16 06:01:07;;;;;;;21.90;8.20;;;5.80;99.90;;;;;;5039870;28;20479;-78
2023/12/16 06:03:33;;;;;;;26.02;8.90;;;5.80;99.90;;;;;;5061479;28;20034;-78
2023/12/16 06:06:00;;;;;;;22.75;8.88;;;5.80;99.90;;;;;;5072354;28;20382;-77
2023/12/16 06:08:26;;;;;;;22.10;7.88;;;5.80;99.90;;;;;;5091767;27;20039;-79
2023/12/16 06:10:52;;;;;;;22.73;8.43;;;5.80;99.90;;;;;;5077228;27;20525;-72
2023/12/16 06:13:19;;;;;;;22.10;8.13;;;5.80;99.90;;;;;;5074654;28;20041;-78
2023/12/16 06:15:45;;;;;;;26.48;8.00;;;5.80;99.90;;;;;;5056915;28;20046;-79
2023/12/16 06:18:11;;;;;;;29.17;8.57;;;5.80;99.90;;;;;;5072845;28;20489;-79
2023/12/16 06:20:38;;;;;;;30.80;8.55;;;5.80;99.90;;;;;;5071551;27;20028;-76
2023/12/16 06:23:04;;;;;;;21.90;8.00;;;5.80;99.90;;;;;;5091473;27;20043;-80
2023/12/16 06:25:30;;;;;;;24.67;7.95;;;5.80;99.90;;;;;;5070085;27;20027;-81
2023/12/16 06:27:56;;;;;;;19.60;7.57;;;5.80;99.90;;;;;;5090583;27;20027;-80
2023/12/16 06:30:23;;;;;;;20.63;7.07;;;5.80;99.90;;;;;;5060198;28;20038;-74
2023/12/16 06:32:49;;;;;;;22.10;7.68;;;5.80;99.90;;;;;;5073083;28;20355;-78
2023/12/16 06:35:15;;;;;;;27.48;7.65;;;5.70;99.90;;;;;;5040061;28;20039;-76
2023/12/16 06:37:42;;;;;;;19.23;6.93;;;5.70;99.90;;;;;;5072546;28;20040;-79
2023/12/16 06:40:08;;;;;;;24.77;7.82;;;5.70;99.90;;;;;;5054627;28;20043;-80
2023/12/16 06:42:34;;;;;;;23.65;8.63;;;5.70;99.90;;;;;;5059258;28;20043;-76
2023/12/16 06:45:01;;;;;;;24.80;7.82;;;5.70;99.90;;;;;;5071879;27;20483;-80
2023/12/16 06:47:27;;;;;;;26.65;10.30;;;5.70;99.90;;;;;;5071599;28;20616;-80
2023/12/16 06:49:54;;;;;;;19.13;7.55;;;5.70;99.90;;;;;;5059382;28;20032;-75
2023/12/16 06:52:22;;;;;;;24.40;8.77;;;5.70;99.90;;;;;;5096294;27;20032;-76
2023/12/16 06:54:48;;;;;;;17.30;7.47;;;5.70;99.90;;;;;;5073011;27;20032;-78
2023/12/16 06:57:14;;;;;;;34.35;8.43;;;5.70;99.90;;;;;;5072557;27;20043;-81
2023/12/16 06:59:41;;;;;;;18.63;6.85;;;5.60;99.90;;;;;;5053854;28;20027;-80
2023/12/16 07:02:07;;;;;;;18.50;7.18;;;5.60;99.90;;;;;;5053665;27;20065;-82
2023/12/16 07:04:33;;;;;;;23.48;7.63;;;5.60;99.90;;;;;;5072248;27;20046;-80
2023/12/16 07:07:00;;;;;;;19.23;7.95;;;5.60;99.90;;;;;;5092108;27;20040;-75
2023/12/16 07:09:26;;;;;;;17.55;7.78;;;5.60;99.90;;;;;;5045657;27;20384;-75
2023/12/16 07:11:52;;;;;;;20.95;7.97;;;5.60;99.90;;;;;;5062226;28;20043;-81
2023/12/16 07:14:19;;;;;;;22.92;8.57;;;5.60;99.90;;;;;;5040819;27;20035;-80
2023/12/16 07:16:45;;;;;;;24.73;8.13;;;5.50;99.90;;;;;;5071199;27;20032;-74
2023/12/16 07:19:14;;;;;;;18.30;7.47;;;5.50;99.90;;;;;;5054679;28;20031;-82
2023/12/16 07:21:43;;;;;;;18.10;7.45;;;5.50;99.90;;;;;;5054806;27;20035;-78
2023/12/16 07:24:09;;;;;;;18.17;7.78;;;5.50;99.90;;;;;;5091314;27;20031;-79
2023/12/16 07:26:36;;;;;;;18.45;7.00;;;5.50;99.90;;;;;;5055199;27;20046;-79
2023/12/16 07:29:02;;;;;;;21.40;9.00;;;5.50;99.90;;;;;;5074488;27;20035;-79
2023/12/16 07:31:29;;;;;;;26.65;9.05;;;5.50;99.90;;;;;;5073265;27;20053;-76
2023/12/16 07:33:56;;;;;;;19.75;8.57;;;5.50;99.90;;;;;;5073112;27;20859;-75
2023/12/16 07:36:22;;;;;;;26.88;8.82;;;5.50;99.90;;;;;;5072715;27;20043;-82
2023/12/16 07:38:48;;;;;;;25.55;8.27;;;5.50;99.90;;;;;;5056087;28;20048;-79
2023/12/16 07:41:15;;;;;;;29.80;9.65;;;5.50;99.90;;;;;;5056646;28;20035;-77
2023/12/16 07:43:41;;;;;;;15.10;7.05;;;5.50;99.90;;;;;;5069613;28;20054;-80
2023/12/16 07:46:08;;;;;;;20.95;7.82;;;5.50;99.90;;;;;;5071145;28;20607;-79
2023/12/16 07:48:34;;;;;;;23.40;8.20;;;5.50;99.90;;;;;;5089067;28;20028;-82
2023/12/16 07:51:01;;;;;;;13.82;7.15;;;5.50;99.90;;;;;;5038130;28;21102;-80
2023/12/16 07:53:27;;;;;;;24.25;8.95;;;5.50;99.90;;;;;;5054382;28;20046;-81
2023/12/16 07:55:54;;;;;;;24.88;7.22;;;5.50;99.90;;;;;;5070220;28;20039;-80
2023/12/16 07:58:20;;;;;;;23.35;8.20;;;5.60;99.90;;;;;;5068594;28;20039;-79
2023/12/16 08:00:46;;;;;;;22.70;8.07;;;5.60;99.90;;;;;;5040738;28;20035;-82
2023/12/16 08:03:13;;;;;;;27.45;8.43;;;5.60;99.90;;;;;;5088704;28;20027;-81
2023/12/16 08:05:42;;;;;;;23.70;7.22;;;5.60;99.90;;;;;;5073253;28;20038;-82
2023/12/16 08:08:08;;;;;;;26.42;7.32;;;5.60;99.90;;;;;;5056282;28;20448;-80
2023/12/16 08:10:35;;;;;;;24.10;8.15;;;5.70;99.90;;;;;;5056870;28;20034;-77
2023/12/16 08:13:01;;;;;;;19.42;6.63;;;5.70;99.90;;;;;;5056226;28;20635;-81
2023/12/16 08:15:28;;;;;;;23.05;8.00;;;5.70;99.90;;;;;;5054767;28;20394;-81
2023/12/16 08:17:54;;;;;;;27.83;7.78;;;5.70;99.90;;;;;;5085742;28;20042;-80
2023/12/16 08:20:21;;;;;;;28.95;8.18;;;5.80;99.90;;;;;;5071012;28;20035;-82
2023/12/16 08:22:47;;;;;;;25.55;7.53;;;5.80;99.90;;;;;;5053035;28;20038;-82
2023/12/16 08:25:15;;;;;;;21.58;7.50;;;5.90;99.90;;;;;;5087535;28;20038;-80
2023/12/16 08:27:41;;;;;;;21.45;7.10;;;5.90;99.90;;;;;;5052267;28;20406;-82
2023/12/16 08:30:08;;;;;;;20.42;6.65;;;6.00;99.90;;;;;;5066452;28;20024;-81
2023/12/16 08:32:34;;;;;;;23.52;5.93;;;6.10;99.90;;;;;;5064074;28;20036;-82
2023/12/16 08:35:01;;;;;;;20.00;6.50;;;6.10;99.90;;;;;;5052047;28;20035;-81
2023/12/16 08:37:27;;;;;;;28.20;7.38;;;6.20;99.90;;;;;;5069159;28;20040;-74
2023/12/16 08:39:53;;;;;;;22.00;6.82;;;6.20;99.90;;;;;;5069497;28;20043;-78
2023/12/16 08:42:20;;;;;;;20.38;6.28;;;6.20;99.90;;;;;;5013396;28;1115938;-75
2023/12/16 08:44:46;;;;;;;24.98;5.85;;;6.30;99.90;;;;;;5037728;28;20038;-79
2023/12/16 08:47:12;;;;;;;34.83;7.68;;;6.40;99.90;;;;;;5053244;28;20055;-75
2023/12/16 08:49:43;;;;;;;25.38;8.95;;;6.50;99.90;;;;;;5071344;28;20401;-83
2023/12/16 08:52:10;;;;;;;24.52;7.38;;;6.60;99.90;;;;;;5070829;28;20032;-79
2023/12/16 08:54:37;;;;;;;17.30;6.65;;;6.80;99.90;;;;;;5068112;28;20106;-79
2023/12/16 08:57:04;;;;;;;27.88;7.00;;;6.90;99.90;;;;;;5068141;28;20028;-75
2023/12/16 08:59:30;;;;;;;28.75;8.18;;;7.10;99.90;;;;;;5070305;28;20065;-79
2023/12/16 09:01:57;;;;;;;20.23;6.50;;;7.20;99.90;;;;;;5054039;28;20038;-81
2023/12/16 09:04:24;;;;;;;25.02;7.75;;;7.40;99.90;;;;;;5052340;28;20513;-80
2023/12/16 09:06:50;;;;;;;21.20;6.93;;;7.50;99.90;;;;;;5068752;28;20443;-78
2023/12/16 09:09:17;;;;;;;25.80;8.27;;;7.60;99.90;;;;;;5072318;28;20470;-78
2023/12/16 09:11:44;;;;;;;20.63;7.43;;;7.70;99.90;;;;;;5037419;28;20528;-79
2023/12/16 09:14:10;;;;;;;24.98;7.70;;;7.70;99.90;;;;;;5071298;28;20031;-81
2023/12/16 09:16:37;;;;;;;16.15;6.60;;;7.80;99.90;;;;;;5084801;28;20038;-79
2023/12/16 09:19:03;;;;;;;27.13;7.07;;;7.80;99.90;;;;;;5069122;28;20379;-81
2023/12/16 09:21:30;;;;;;;21.60;6.93;;;7.80;99.90;;;;;;5067792;28;20548;-79
2023/12/16 09:23:56;;;;;;;26.65;6.85;;;7.80;99.90;;;;;;5086411;28;20043;-80
2023/12/16 09:26:23;;;;;;;28.30;7.15;;;7.90;99.90;;;;;;5049823;28;20039;-75
2023/12/16 09:28:50;;;;;;;19.00;6.38;;;7.90;99.90;;;;;;5069019;28;20042;-78
2023/12/16 09:31:17;;;;;;;22.00;7.80;;;8.00;99.90;;;;;;5052521;28;20524;-78
2023/12/16 09:33:43;;;;;;;21.67;7.05;;;8.00;99.90;;;;;;5038082;28;20490;-78
2023/12/16 09:36:13;;;;;;;17.73;6.05;;;8.00;99.90;;;;;;5068609;28;20044;-75
2023/12/16 09:38:43;;;;;;;18.42;6.35;;;8.10;99.90;;;;;;5068751;28;20032;-76
2023/12/16 09:41:25;;;;;;;18.35;7.20;;;8.10;99.90;;;;;;5067536;28;20030;-78
2023/12/16 09:43:54;;;;;;;24.27;8.55;;;8.10;99.90;;;;;;5039043;27;20059;-81
2023/12/16 09:46:28;;;;;;;19.33;6.28;;;8.20;99.90;;;;;;5088881;27;20043;-78
2023/12/16 09:48:55;;;;;;;27.60;7.45;;;8.20;99.90;;;;;;5057014;28;20077;-80
2023/12/16 09:51:23;;;;;;;26.30;8.27;;;8.20;99.90;;;;;;5090509;27;20031;-79
2023/12/16 09:53:50;;;;;;;25.27;8.80;;;8.30;99.90;;;;;;5070491;27;20038;-79
2023/12/16 09:56:17;;;;;;;26.67;9.15;;;8.30;99.90;;;;;;5070905;27;20043;-79
2023/12/16 09:58:46;;;;;;;30.30;9.48;;;8.30;99.90;;;;;;5055998;28;20043;-76
2023/12/16 10:01:13;;;;;;;24.38;9.20;;;8.30;99.90;;;;;;5072357;28;20043;-76
2023/12/16 10:03:41;;;;;;;25.20;10.00;;;8.30;99.90;;;;;;5037826;28;20039;-76
2023/12/16 10:06:08;;;;;;;27.42;9.75;;;8.30;99.90;;;;;;5070081;28;20035;-79
2023/12/16 10:08:36;;;;;;;32.58;11.98;;;8.30;99.90;;;;;;5071443;27;20028;-79
2023/12/16 10:11:03;;;;;;;25.52;9.80;;;8.30;99.90;;;;;;5072863;27;20398;-75
2023/12/16 10:13:32;;;;;;;30.65;11.07;;;8.30;99.90;;;;;;5055965;27;20035;-79
2023/12/16 10:15:59;;;;;;;26.30;10.98;;;8.30;99.90;;;;;;5040195;28;20044;-75
2023/12/16 10:18:27;;;;;;;24.25;10.13;;;8.30;99.90;;;;;;5055871;27;20031;-77
2023/12/16 10:20:55;;;;;;;26.40;10.25;;;8.40;99.90;;;;;;5070630;28;20031;-80
2023/12/16 10:23:23;;;;;;;25.75;10.23;;;8.40;99.90;;;;;;5053941;27;20039;-80
2023/12/16 10:25:50;;;;;;;26.80;10.75;;;8.40;99.90;;;;;;5069508;28;20030;-79
2023/12/16 10:28:18;;;;;;;29.00;11.48;;;8.40;99.90;;;;;;5071482;28;20083;-75
2023/12/16 10:30:45;;;;;;;30.58;12.25;;;8.40;99.90;;;;;;5054925;28;20035;-79
2023/12/16 10:33:11;;;;;;;40.85;13.25;;;8.40;99.90;;;;;;5051915;28;20050;-78
2023/12/16 10:35:38;;;;;;;27.30;10.95;;;8.40;99.90;;;;;;5053552;28;20039;-76
2023/12/16 10:38:08;;;;;;;35.00;11.80;;;8.50;99.90;;;;;;5070598;27;20032;-75
2023/12/16 10:40:37;;;;;;;32.45;13.98;;;8.50;99.90;;;;;;5070425;27;20039;-75
2023/12/16 10:43:04;;;;;;;26.83;12.00;;;8.60;99.90;;;;;;5055480;28;20038;-76
2023/12/16 10:45:31;;;;;;;31.17;12.52;;;8.60;99.90;;;;;;5089108;28;20035;-74
2023/12/16 10:48:03;;;;;;;32.97;15.55;;;8.70;99.90;;;;;;5090877;27;21383;-74
2023/12/16 10:50:31;;;;;;;34.88;14.95;;;8.70;99.90;;;;;;5069428;27;20035;-76
2023/12/16 10:53:02;;;;;;;32.92;14.52;;;8.80;99.90;;;;;;5037520;27;20102;-80
2023/12/16 10:55:38;;;;;;;31.73;14.20;;;8.80;99.90;;;;;;5053968;27;20584;-80
2023/12/16 10:58:25;;;;;;;34.75;16.27;;;8.80;99.90;;;;;;5053990;28;20031;-80
2023/12/16 11:00:52;;;;;;;39.55;17.20;;;8.90;99.90;;;;;;5069916;27;20031;-80
2023/12/16 11:03:41;;;;;;;39.50;16.27;;;8.90;99.90;;;;;;5038228;28;20032;-78
2023/12/16 11:06:16;;;;;;;40.90;18.40;;;9.00;99.90;;;;;;5071284;28;20035;-80
2023/12/16 11:08:44;;;;;;;44.75;20.25;;;9.00;99.90;;;;;;5056805;28;20020;-79
2023/12/16 11:11:11;;;;;;;38.65;18.42;;;9.00;99.90;;;;;;5051646;27;20066;-81
2023/12/16 11:13:37;;;;;;;41.97;19.58;;;9.00;99.90;;;;;;5056692;28;20055;-80
2023/12/16 11:16:13;;;;;;;41.10;18.83;;;9.00;99.90;;;;;;5055989;28;20048;-74
2023/12/16 11:18:44;;;;;;;47.10;20.23;;;9.00;99.90;;;;;;5071163;27;20035;-78
2023/12/16 11:21:14;;;;;;;52.55;20.58;;;9.00;99.90;;;;;;5053953;28;20038;-79
2023/12/16 11:23:45;;;;;;;43.15;19.98;;;9.00;99.90;;;;;;5063803;28;20043;-78
2023/12/16 11:26:12;;;;;;;38.13;19.40;;;9.10;99.90;;;;;;5089776;27;20031;-78
2023/12/16 11:28:38;;;;;;;42.60;20.75;;;9.00;99.90;;;;;;5071606;28;20040;-79
2023/12/16 11:31:05;;;;;;;43.08;20.50;;;9.10;99.90;;;;;;5054384;28;20034;-77
2023/12/16 11:33:47;;;;;;;34.97;19.58;;;9.00;99.90;;;;;;5070613;28;20059;-78
2023/12/16 11:36:14;;;;;;;46.20;21.95;;;9.00;99.90;;;;;;5068541;27;20051;-77
2023/12/16 11:38:42;;;;;;;42.40;19.13;;;9.00;99.90;;;;;;5035282;27;20031;-79
2023/12/16 11:41:10;;;;;;;41.03;21.98;;;9.00;99.90;;;;;;5070987;27;20031;-79
2023/12/16 11:43:54;;;;;;;43.88;20.23;;;9.00;99.90;;;;;;5069785;28;21279;-76
2023/12/16 11:46:40;;;;;;;50.28;23.00;;;9.00;99.90;;;;;;5054798;27;20035;-77
2023/12/16 11:49:14;;;;;;;39.97;20.25;;;9.00;99.90;;;;;;5069193;28;20035;-78
2023/12/16 11:51:41;;;;;;;38.38;19.02;;;9.00;99.90;;;;;;5071002;28;20051;-78
2023/12/16 11:54:09;;;;;;;39.97;19.48;;;9.00;99.90;;;;;;5056301;28;20494;-78
2023/12/16 11:56:36;;;;;;;47.80;19.80;;;9.00;99.90;;;;;;5086709;27;20043;-78
2023/12/16 11:59:04;;;;;;;37.25;18.58;;;9.00;99.90;;;;;;5072379;28;20035;-79
2023/12/16 12:01:32;;;;;;;38.28;19.38;;;9.00;99.90;;;;;;5054694;27;20032;-77
2023/12/16 12:04:00;;;;;;;42.35;19.00;;;9.00;99.90;;;;;;5068634;28;20404;-79
2023/12/16 12:06:26;;;;;;;44.80;22.42;;;8.90;99.90;;;;;;5069537;28;20039;-79
2023/12/16 12:08:52;;;;;;;35.65;20.52;;;8.90;99.90;;;;;;5054757;28;20123;-75
2023/12/16 12:11:20;;;;;;;33.25;18.75;;;8.90;99.90;;;;;;5053023;28;20482;-80
2023/12/16 12:13:51;;;;;;;38.85;22.30;;;8.90;99.90;;;;;;5039287;28;20035;-80
2023/12/16 12:16:18;;;;;;;55.60;24.13;;;8.90;99.90;;;;;;5071766;28;20036;-79
2023/12/16 12:18:44;;;;;;;37.85;21.55;;;8.90;99.90;;;;;;5055622;28;20032;-77
2023/12/16 12:21:11;;;;;;;42.75;22.30;;;8.90;99.90;;;;;;5053253;28;20039;-79
2023/12/16 12:23:38;;;;;;;33.70;20.33;;;8.90;99.90;;;;;;5070841;28;21141;-83
2023/12/16 12:26:04;;;;;;;34.33;19.38;;;8.90;99.90;;;;;;5070403;28;20036;-80
2023/12/16 12:28:31;;;;;;;43.15;22.58;;;8.90;99.90;;;;;;5055043;28;20050;-81
2023/12/16 12:31:02;;;;;;;44.15;21.65;;;8.90;99.90;;;;;;5054369;28;20028;-78
2023/12/16 12:33:31;;;;;;;44.72;23.60;;;8.90;99.90;;;;;;5070631;28;20027;-76
2023/12/16 12:35:57;;;;;;;44.63;24.08;;;8.90;99.90;;;;;;5057474;28;20405;-81
2023/12/16 12:38:24;;;;;;;40.05;21.98;;;8.90;99.90;;;;;;5052983;28;20035;-81
2023/12/16 12:41:06;;;;;;;35.45;20.65;;;8.90;99.90;;;;;;5088290;28;20035;-78
2023/12/16 12:43:35;;;;;;;33.88;19.45;;;8.90;99.90;;;;;;5054215;28;20036;-80
2023/12/16 12:46:09;;;;;;;40.38;20.95;;;8.90;99.90;;;;;;5088737;28;20038;-81